SAEZSANT

Guest
Details From SAEZ - Ministro Pistarini (ezeiza)
To SANT - Teniente Benjamin Matienzo
Flight Number -
Tags Generated
Created
Modified
Stats Distance 586 nm / 1,086 km
Max Altitude 0 ft / 0 m
Waypoints 3
Social Downloads 2
Likes 0
Share VATSIM

Download

Looking for another format? Having issues loading an existing format? Contact us
Advertisement - Login to hide

Notes

Generated

Route

SAEZ TUC SANT

ID Type Via Altitude Latitude Longitude Leg Dist Tot Dist Heading (true) Name
O SAEZ APT - 0 ft / 0 m -34.80841˚ -58.53386˚ - 0 nm - -
TUC VOR - 0 ft / 0 m -26.84583˚ -65.10833˚ 585 nm 585 nm 323° / 326° TUCUMAN VOR-DME
O SANT APT - 0 ft / 0 m -26.85366˚ -65.10709˚ 0 nm 586 nm 172° / 172° -

Altitude Profile

Advertisement - Login to hide

Weather


0- 5 10 15 20 25 30 35+ Temperature / ° C

Clouds and Precipitation
Forecast for 2018-05-25 12:00 UTC. Updated 26 minutes ago

Ground ~20,000 ft ~40,000 ft Winds

SAEZ

Details ICAO SAEZ (EZE)
Name Ministro Pistarini (Ezeiza)
Region Argentina
Timezone America/Argentina/Buenos_Aires (UTC-3.0)
Stats Elevation 66 ft / 20 m (AMSL)
Location -34.821380° -58.532731°
Runways 2
Magnetic Variation 8.797° W

METAR

SAEZ 251100Z 32002KT CAVOK 08/06 Q1023 NOSIG

Decode

TAF

TAF SAEZ 250500Z 2506/2606 33005KT CAVOK TX20/2518Z TN08/2510Z BECMG 2516/2518 02010KT

Decode

Departure Runways

ID Width Length Bearing (true) Bearing (mag) Surface Threshold Offset Overrun Length
11 190 ft / 58 m 10,778 ft / 3,285 m 102.20° 111.00° Asphalt 0 ft / 0 m 0 ft / 0 m
17 151 ft / 46 m 9,153 ft / 2,790 m 163.98° 172.78° Asphalt 0 ft / 0 m 98 ft / 30 m
29 190 ft / 58 m 10,778 ft / 3,285 m 282.18° 290.98° Asphalt 0 ft / 0 m 115 ft / 35 m
35 151 ft / 46 m 9,153 ft / 2,790 m 343.98° 352.78° Asphalt 984 ft / 300 m 1,024 ft / 312 m

SANT

Details ICAO SANT (TUC)
Name Teniente Benjamin Matienzo
Region Argentina
Timezone America/Argentina/Tucuman (UTC-3.0)
Stats Elevation 1,494 ft / 455 m (AMSL)
Location -26.840800° -65.104601°
Runways 1
Magnetic Variation 7.015° W

METAR

SANT 251100Z 32004KT 8000 NSC 09/08 Q1020

Decode

TAF

TAF SANT 250500Z 2506/2606 09005KT 7000 SCT030 TX24/2518Z TN10/2510Z TEMPO 2508/2512 VRB02KT 2000 BR BKN020

Decode

Destination Runways

ID Width Length Bearing (true) Bearing (mag) Surface Threshold Offset Overrun Length
01 151 ft / 46 m 9,523 ft / 2,903 m 9.80° 16.82° Concrete 0 ft / 0 m 98 ft / 30 m
19 151 ft / 46 m 9,523 ft / 2,903 m 189.80° 196.82° Concrete 0 ft / 0 m 98 ft / 30 m

Approach Navaids

Runway Type Ident Frequency Range Bearing (true) Bearing (mag) Slope Elevation
01 Localiser TU 109.90 MHz 18 nm / 33 km 9.42° 16.43° - 1,439 ft / 439 m (AMSL)
01 Glidescope TU 109.90 MHz 10 nm / 19 km 9.80° 16.81° 3.00° 1,496 ft / 456 m (AMSL)

Popular Alternatives